Time;durP1;ratioP1;P1;durP2;ratioP2;P2;SDS_P1;SDS_P2;PMS_P1;PMS_P2;Temp;Humidity;BMP_temperature;BMP_pressure;BME280_temperature;BME280_humidity;BME280_pressure;Samples;Min_cycle;Max_cycle;Signal;HPM_P1;HPM_P2
2021/07/09 00:01:58;;;;;;;5.55;3.40;;;;;;;13.86;86.70;101557.88;4995255;28;20564;-79
2021/07/09 00:04:24;;;;;;;7.10;4.15;;;;;;;13.91;86.57;101576.25;4985034;28;20041;-79
2021/07/09 00:06:51;;;;;;;6.88;3.45;;;;;;;13.83;86.69;101563.63;4988111;28;20033;-80
2021/07/09 00:09:18;;;;;;;7.45;3.97;;;;;;;13.81;86.33;101569.25;5008661;28;20070;-79
2021/07/09 00:11:46;;;;;;;6.22;3.55;;;;;;;13.82;87.03;101572.78;4993105;28;20433;-80
2021/07/09 00:14:12;;;;;;;6.68;3.55;;;;;;;13.84;87.13;101584.25;4994139;28;20061;-80
2021/07/09 00:16:38;;;;;;;7.10;3.90;;;;;;;13.85;86.99;101575.13;4993906;28;20033;-80
2021/07/09 00:19:07;;;;;;;8.15;4.47;;;;;;;13.85;87.67;101575.97;4981587;28;20026;-81
2021/07/09 00:21:34;;;;;;;8.75;3.63;;;;;;;13.87;87.24;101575.78;4993751;28;20492;-79
2021/07/09 00:24:00;;;;;;;7.93;3.90;;;;;;;13.92;87.92;101575.22;4998275;28;20054;-79
2021/07/09 00:26:27;;;;;;;6.85;3.55;;;;;;;13.90;87.95;101575.44;4984244;28;20033;-79
2021/07/09 00:28:53;;;;;;;7.30;4.10;;;;;;;13.94;87.86;101575.91;4962509;28;20041;-79
2021/07/09 00:31:18;;;;;;;10.18;4.30;;;;;;;13.92;87.82;101562.59;4972263;28;20065;-79
2021/07/09 00:33:43;;;;;;;9.32;4.07;;;;;;;13.87;87.67;101556.03;4984370;28;20109;-79
2021/07/09 00:36:09;;;;;;;7.20;3.97;;;;;;;13.87;87.49;101562.28;4986705;28;20022;-80
2021/07/09 00:38:34;;;;;;;9.05;4.85;;;;;;;13.83;87.39;101564.47;4988345;28;20033;-79
2021/07/09 00:41:00;;;;;;;7.72;4.55;;;;;;;13.76;88.08;101562.66;4992149;28;20023;-79
2021/07/09 00:43:26;;;;;;;7.35;4.53;;;;;;;13.72;88.47;101564.88;4992651;28;20079;-80
2021/07/09 00:45:51;;;;;;;10.52;4.55;;;;;;;13.73;88.64;101563.84;4999834;28;20069;-79
2021/07/09 00:48:17;;;;;;;8.95;4.75;;;;;;;13.69;89.03;101561.69;4989006;28;20382;-80
2021/07/09 00:50:43;;;;;;;7.95;4.43;;;;;;;13.71;88.96;101574.00;5005227;28;20117;-79
2021/07/09 00:53:08;;;;;;;10.07;4.72;;;;;;;13.69;89.11;101573.34;5009527;28;20091;-79
2021/07/09 00:55:34;;;;;;;9.57;4.75;;;;;;;13.65;89.05;101572.00;4984646;28;20057;-80
2021/07/09 00:58:01;;;;;;;8.23;4.25;;;;;;;13.61;89.67;101557.16;4988045;28;20037;-80
2021/07/09 01:00:28;;;;;;;14.13;6.15;;;;;;;13.69;89.50;101567.94;4973421;28;20033;-80
2021/07/09 01:02:55;;;;;;;9.55;5.00;;;;;;;13.70;89.33;101561.50;4989915;28;20041;-79
2021/07/09 01:05:21;;;;;;;12.57;5.55;;;;;;;13.66;89.20;101568.28;4992910;28;20120;-79
2021/07/09 01:07:47;;;;;;;10.23;5.10;;;;;;;13.64;89.75;101554.09;4976967;28;20037;-80
2021/07/09 01:10:16;;;;;;;8.75;4.78;;;;;;;13.57;89.75;101540.44;4990684;28;20046;-80
2021/07/09 01:12:42;;;;;;;11.15;6.03;;;;;;;13.60;89.67;101553.63;4979249;28;20045;-80
2021/07/09 01:15:10;;;;;;;9.52;5.32;;;;;;;13.55;89.93;101555.19;4990341;28;20034;-79
2021/07/09 01:17:36;;;;;;;10.30;5.53;;;;;;;13.53;90.11;101547.25;5011414;28;20045;-80
2021/07/09 01:20:04;;;;;;;8.40;5.53;;;;;;;13.49;90.16;101545.91;4987806;28;20025;-80
2021/07/09 01:22:30;;;;;;;8.90;5.13;;;;;;;13.51;90.15;101548.44;4994616;28;20093;-80
2021/07/09 01:24:56;;;;;;;10.70;5.72;;;;;;;13.44;90.51;101536.63;4989260;28;21055;-79
2021/07/09 01:27:22;;;;;;;10.85;5.32;;;;;;;13.45;90.37;101541.03;4990695;28;20030;-79
2021/07/09 01:29:48;;;;;;;9.18;5.18;;;;;;;13.48;89.88;101546.09;4974950;28;20022;-79
2021/07/09 01:32:13;;;;;;;11.60;5.38;;;;;;;13.44;89.92;101542.88;4991962;28;20033;-79
2021/07/09 01:34:40;;;;;;;9.68;5.40;;;;;;;13.44;90.03;101548.28;4989789;28;20071;-80
2021/07/09 01:37:17;;;;;;;7.00;4.55;;;;;;;13.38;90.13;101539.03;5004776;28;20026;-79
2021/07/09 01:39:44;;;;;;;7.78;4.10;;;;;;;13.30;89.89;101525.56;4992225;28;20030;-79
2021/07/09 01:42:10;;;;;;;9.73;4.43;;;;;;;13.32;90.42;101530.78;4985741;28;20049;-79
2021/07/09 01:44:37;;;;;;;8.43;4.35;;;;;;;13.32;90.22;101528.09;5004900;28;20033;-79
2021/07/09 01:47:04;;;;;;;8.07;4.50;;;;;;;13.29;90.33;101526.56;5006722;28;20104;-80
2021/07/09 01:49:29;;;;;;;9.27;4.30;;;;;;;13.23;90.54;101529.09;4988512;28;20510;-80
2021/07/09 01:51:55;;;;;;;9.68;4.50;;;;;;;13.18;90.58;101533.16;5006726;28;20017;-79
2021/07/09 01:54:21;;;;;;;9.43;4.18;;;;;;;13.09;90.59;101517.16;4971790;28;20057;-80
2021/07/09 01:56:46;;;;;;;11.00;4.30;;;;;;;13.08;90.98;101520.88;4986195;28;20646;-79
2021/07/09 01:59:12;;;;;;;7.10;3.97;;;;;;;13.10;91.16;101527.81;5010519;28;20029;-80
2021/07/09 02:01:37;;;;;;;9.90;3.78;;;;;;;13.06;91.07;101526.44;5009607;28;20022;-80
2021/07/09 02:04:03;;;;;;;7.10;3.53;;;;;;;13.05;91.31;101522.06;5005722;28;20055;-79
2021/07/09 02:06:28;;;;;;;7.07;4.10;;;;;;;13.07;91.58;101511.94;4978846;28;20397;-79
2021/07/09 02:08:54;;;;;;;11.18;4.70;;;;;;;13.12;91.48;101517.63;4988698;28;20021;-79
2021/07/09 02:11:19;;;;;;;9.70;4.63;;;;;;;13.08;91.24;101508.22;4986741;28;20084;-79
2021/07/09 02:13:45;;;;;;;9.05;4.15;;;;;;;13.12;91.45;101506.00;4997064;28;20034;-79
2021/07/09 02:16:10;;;;;;;9.15;4.32;;;;;;;13.14;91.73;101507.50;4974945;28;20109;-80
2021/07/09 02:18:35;;;;;;;7.20;4.13;;;;;;;13.17;91.13;101514.44;4987630;28;20030;-80
2021/07/09 02:21:01;;;;;;;8.32;3.90;;;;;;;13.05;91.16;101500.47;4979061;28;20026;-80
2021/07/09 02:23:27;;;;;;;9.98;4.07;;;;;;;13.13;91.34;101507.72;4979410;28;20025;-78
2021/07/09 02:25:52;;;;;;;6.43;3.60;;;;;;;13.11;91.59;101498.94;4988940;28;20025;-79
2021/07/09 02:28:17;;;;;;;6.88;3.10;;;;;;;13.10;91.35;101502.66;4989983;28;20113;-79
2021/07/09 02:30:43;;;;;;;6.25;3.25;;;;;;;13.09;91.40;101501.78;5010914;28;20530;-78
2021/07/09 02:33:09;;;;;;;5.70;2.90;;;;;;;13.16;91.53;101501.94;5004501;28;20034;-79
2021/07/09 02:35:38;;;;;;;7.30;3.53;;;;;;;13.23;91.05;101502.09;4974283;28;20084;-79
2021/07/09 02:38:05;;;;;;;7.85;4.20;;;;;;;13.25;90.88;101503.59;4987176;28;20030;-79
2021/07/09 02:40:31;;;;;;;5.72;3.50;;;;;;;13.25;90.91;101503.59;4985326;28;20045;-80
2021/07/09 02:43:03;;;;;;;7.95;4.38;;;;;;;13.26;90.64;101501.72;4983520;28;20398;-80
2021/07/09 02:45:28;;;;;;;6.78;3.92;;;;;;;13.26;90.96;101493.63;4977841;28;20029;-79
2021/07/09 02:47:54;;;;;;;5.57;3.47;;;;;;;13.18;90.98;101489.13;4969189;28;20029;-79
2021/07/09 02:50:22;;;;;;;6.60;3.42;;;;;;;13.18;91.09;101489.13;4982600;28;20080;-80
2021/07/09 02:52:47;;;;;;;7.50;4.05;;;;;;;13.21;91.15;101488.78;4986339;28;20026;-80
2021/07/09 02:55:13;;;;;;;9.25;4.10;;;;;;;13.26;91.49;101489.13;5008644;28;21028;-79
2021/07/09 02:57:41;;;;;;;7.93;3.80;;;;;;;13.22;91.27;101470.72;4987161;28;20026;-79
2021/07/09 03:00:12;;;;;;;7.28;4.00;;;;;;;13.30;91.19;101476.09;5000590;28;20483;-79
2021/07/09 03:02:38;;;;;;;8.07;3.75;;;;;;;13.28;91.36;101480.81;4990751;28;20041;-79
2021/07/09 03:05:04;;;;;;;7.65;3.75;;;;;;;13.24;91.50;101471.38;5000837;28;20026;-80
2021/07/09 03:07:29;;;;;;;6.70;3.85;;;;;;;13.17;91.54;101466.66;5001427;28;20101;-79
2021/07/09 03:09:55;;;;;;;8.07;3.85;;;;;;;13.19;91.76;101463.78;4980742;28;20121;-80
2021/07/09 03:12:20;;;;;;;7.72;4.00;;;;;;;13.12;91.62;101458.25;4967446;28;20030;-79
2021/07/09 03:14:45;;;;;;;8.75;4.20;;;;;;;13.14;91.53;101466.19;4982286;28;20109;-79
2021/07/09 03:17:11;;;;;;;6.07;3.58;;;;;;;13.08;91.23;101462.31;4986815;28;20478;-80
2021/07/09 03:19:36;;;;;;;7.18;4.22;;;;;;;13.14;91.58;101467.00;4989420;28;20057;-79
2021/07/09 03:22:02;;;;;;;7.88;4.25;;;;;;;13.12;91.37;101469.03;4970026;28;20022;-79
2021/07/09 03:24:28;;;;;;;7.07;3.90;;;;;;;13.07;91.43;101457.09;5004743;28;20033;-80
2021/07/09 03:26:53;;;;;;;8.25;4.00;;;;;;;13.10;91.46;101459.47;4988739;28;20033;-80
2021/07/09 03:29:19;;;;;;;8.95;4.20;;;;;;;13.10;91.13;101454.91;4986997;28;20030;-80
2021/07/09 03:31:44;;;;;;;6.45;3.80;;;;;;;13.10;91.57;101449.50;4987920;28;20740;-80
2021/07/09 03:34:10;;;;;;;13.05;3.97;;;;;;;13.09;91.60;101446.97;4999181;28;20034;-80
2021/07/09 03:36:38;;;;;;;6.90;4.40;;;;;;;13.14;91.50;101449.97;4987648;28;20073;-79
2021/07/09 03:39:04;;;;;;;6.82;3.75;;;;;;;13.08;91.34;101440.72;5002685;28;20049;-80
2021/07/09 03:41:29;;;;;;;7.70;3.95;;;;;;;13.05;91.39;101426.75;4963477;28;20060;-80
2021/07/09 03:43:55;;;;;;;8.27;4.13;;;;;;;13.10;91.14;101438.69;4970582;28;20025;-80
2021/07/09 03:46:20;;;;;;;9.00;3.97;;;;;;;13.08;91.57;101439.88;4992675;28;20109;-80
2021/07/09 03:48:46;;;;;;;8.52;4.40;;;;;;;13.04;91.86;101439.38;4990130;28;20021;-79
2021/07/09 03:51:11;;;;;;;8.77;4.20;;;;;;;12.98;91.59;101426.59;4988658;28;20702;-79
2021/07/09 03:53:37;;;;;;;9.43;4.32;;;;;;;13.01;91.75;101431.63;4984821;28;20033;-79
2021/07/09 03:56:03;;;;;;;8.45;4.05;;;;;;;12.99;91.65;101425.56;4986415;28;20025;-80
2021/07/09 03:58:31;;;;;;;7.65;4.05;;;;;;;12.98;91.96;101422.03;4972192;28;20502;-79
2021/07/09 04:00:57;;;;;;;9.32;4.40;;;;;;;13.03;91.93;101424.22;4984037;28;20041;-80
2021/07/09 04:03:22;;;;;;;8.18;4.68;;;;;;;12.98;91.64;101413.09;4972065;28;20029;-79
2021/07/09 04:05:48;;;;;;;9.45;4.55;;;;;;;13.08;91.73;101421.81;4971809;28;20117;-79
2021/07/09 04:08:13;;;;;;;8.73;4.00;;;;;;;13.10;91.88;101419.81;4970483;28;20129;-80
2021/07/09 04:10:39;;;;;;;8.27;4.35;;;;;;;13.07;91.87;101411.19;4983458;28;20026;-79
2021/07/09 04:13:04;;;;;;;6.72;3.95;;;;;;;13.03;91.68;101404.47;5003585;28;21612;-80
2021/07/09 04:15:30;;;;;;;7.43;4.20;;;;;;;13.08;91.48;101421.81;4983146;28;20121;-80
2021/07/09 04:17:55;;;;;;;8.20;4.40;;;;;;;13.08;91.26;101416.44;4986335;28;20065;-80
2021/07/09 04:20:21;;;;;;;7.78;4.10;;;;;;;13.13;91.73;101429.41;4976520;28;20036;-79
2021/07/09 04:22:46;;;;;;;8.07;4.35;;;;;;;13.09;91.29;101414.56;5000661;28;20021;-79
2021/07/09 04:25:12;;;;;;;9.57;4.38;;;;;;;13.15;91.67;101425.50;4985646;28;20033;-80
2021/07/09 04:27:38;;;;;;;8.65;4.65;;;;;;;13.15;91.71;101427.34;4985724;28;20473;-80
2021/07/09 04:30:05;;;;;;;8.32;4.40;;;;;;;13.08;91.40;101415.59;4985167;28;20474;-80
2021/07/09 04:32:31;;;;;;;8.73;4.82;;;;;;;13.13;91.49;101422.13;4986068;28;21315;-79
2021/07/09 04:34:56;;;;;;;11.00;4.90;;;;;;;13.18;91.28;101429.72;4995929;28;20034;-79
2021/07/09 04:37:22;;;;;;;9.07;4.90;;;;;;;13.22;91.45;101427.50;4980754;28;20041;-80
2021/07/09 04:39:47;;;;;;;7.10;4.45;;;;;;;13.15;91.09;101420.13;4999582;28;20029;-79
2021/07/09 04:42:13;;;;;;;10.38;4.68;;;;;;;13.17;91.49;101419.91;4985131;28;20441;-80
2021/07/09 04:44:39;;;;;;;8.20;4.15;;;;;;;13.13;91.54;101415.91;4988106;28;20036;-80
2021/07/09 04:47:04;;;;;;;10.60;4.60;;;;;;;13.13;91.53;101416.75;4988710;28;20407;-80
2021/07/09 04:49:30;;;;;;;9.40;4.60;;;;;;;13.16;91.85;101419.09;4970842;28;20423;-80
2021/07/09 04:51:56;;;;;;;10.73;5.30;;;;;;;13.14;91.83;101404.06;5000336;28;20034;-80
2021/07/09 04:54:21;;;;;;;11.40;5.72;;;;;;;13.18;91.75;101400.84;4985282;28;20466;-79
2021/07/09 04:56:47;;;;;;;8.50;4.75;;;;;;;13.18;91.33;101398.16;4987065;28;20398;-79
2021/07/09 04:59:12;;;;;;;9.77;4.75;;;;;;;13.27;91.62;101411.63;4985288;28;20461;-80
2021/07/09 05:01:38;;;;;;;8.13;4.50;;;;;;;13.28;91.29;101413.31;4974933;28;20037;-80
2021/07/09 05:04:05;;;;;;;8.10;4.45;;;;;;;13.26;91.14;101415.31;4989640;28;20022;-79
2021/07/09 05:06:31;;;;;;;7.78;4.63;;;;;;;13.25;91.44;101408.22;4967625;28;20394;-79
2021/07/09 05:08:57;;;;;;;11.50;4.85;;;;;;;13.28;91.43;101400.63;4991629;28;20483;-80
2021/07/09 05:11:22;;;;;;;9.85;4.90;;;;;;;13.29;91.09;101398.81;4989225;28;20030;-81
2021/07/09 05:13:47;;;;;;;9.93;5.38;;;;;;;13.31;91.16;101394.91;5006336;28;20117;-80
2021/07/09 05:16:13;;;;;;;10.32;5.93;;;;;;;13.35;90.81;101387.28;4986882;28;20615;-79
2021/07/09 05:18:38;;;;;;;8.65;4.88;;;;;;;13.44;90.51;101391.59;5003603;28;20033;-79
2021/07/09 05:21:04;;;;;;;8.35;4.32;;;;;;;13.39;90.49;101378.66;4972998;28;20029;-79
2021/07/09 05:23:29;;;;;;;10.88;5.07;;;;;;;13.45;90.63;101381.66;4986636;28;20033;-79
2021/07/09 05:25:54;;;;;;;9.63;4.75;;;;;;;13.43;90.42;101375.59;4988249;28;20034;-78
2021/07/09 05:28:20;;;;;;;11.57;5.78;;;;;;;13.50;90.26;101392.75;5005459;28;20018;-79
2021/07/09 05:30:46;;;;;;;10.32;5.53;;;;;;;13.56;90.21;101386.63;4986832;28;20030;-79
2021/07/09 05:33:15;;;;;;;9.07;4.72;;;;;;;13.57;90.21;101391.84;4978787;28;20109;-80
2021/07/09 05:35:43;;;;;;;8.55;4.93;;;;;;;13.54;90.13;101384.09;4984225;28;20029;-80
2021/07/09 05:38:08;;;;;;;7.25;4.43;;;;;;;13.51;90.08;101379.06;4989455;28;20030;-79
2021/07/09 05:40:34;;;;;;;8.60;4.97;;;;;;;13.62;89.77;101388.59;4971723;28;20136;-79
2021/07/09 05:43:01;;;;;;;8.70;4.70;;;;;;;13.63;90.01;101385.72;5003308;28;20498;-80
2021/07/09 05:45:26;;;;;;;10.00;4.63;;;;;;;13.71;89.74;101384.84;5001475;28;20554;-79
2021/07/09 05:47:52;;;;;;;8.60;4.63;;;;;;;13.80;89.61;101391.00;4990384;28;20120;-78
2021/07/09 05:50:17;;;;;;;9.68;4.72;;;;;;;13.76;89.12;101386.97;4975285;28;20038;-80
2021/07/09 05:52:43;;;;;;;11.55;4.93;;;;;;;13.76;88.80;101389.66;4976282;28;20079;-80
2021/07/09 05:55:08;;;;;;;8.63;5.13;;;;;;;13.80;88.91;101391.84;4980413;28;20048;-79
2021/07/09 05:57:34;;;;;;;11.05;4.82;;;;;;;13.79;88.64;101395.56;4987235;28;20113;-80
2021/07/09 05:59:59;;;;;;;10.85;4.70;;;;;;;13.84;88.57;101400.44;4974901;28;20635;-79
2021/07/09 06:02:25;;;;;;;8.27;4.25;;;;;;;13.73;88.44;101380.06;4986753;28;20030;-80
2021/07/09 06:04:50;;;;;;;8.68;4.43;;;;;;;13.80;88.25;101401.81;4987648;28;20080;-79
2021/07/09 06:07:15;;;;;;;10.73;5.53;;;;;;;13.78;88.03;101404.69;5003854;28;20030;-80
2021/07/09 06:09:41;;;;;;;8.38;4.07;;;;;;;13.79;87.95;101406.38;4996500;28;20113;-80
2021/07/09 06:12:07;;;;;;;7.05;4.20;;;;;;;13.91;87.81;101406.78;4987317;28;20037;-79
2021/07/09 06:14:33;;;;;;;7.50;3.83;;;;;;;13.99;87.67;101401.31;4978985;28;20097;-79
2021/07/09 06:16:58;;;;;;;8.05;4.65;;;;;;;13.88;87.36;101382.81;4960608;28;20491;-79
2021/07/09 06:19:24;;;;;;;9.10;4.15;;;;;;;13.93;87.17;101390.41;4992891;28;20031;-79
2021/07/09 06:21:50;;;;;;;8.73;4.10;;;;;;;13.99;86.95;101390.50;4976470;28;21434;-79
2021/07/09 06:24:15;;;;;;;8.30;4.68;;;;;;;14.07;86.80;101393.09;4984121;28;20025;-79
2021/07/09 06:26:41;;;;;;;7.00;4.10;;;;;;;14.03;86.89;101389.13;4984188;28;20052;-79
2021/07/09 06:29:06;;;;;;;8.98;4.20;;;;;;;14.07;86.67;101393.09;4968399;28;20028;-81
2021/07/09 06:31:32;;;;;;;7.93;4.15;;;;;;;14.09;86.77;101401.06;4980108;28;20053;-80
2021/07/09 06:33:58;;;;;;;7.07;3.53;;;;;;;14.04;86.83;101401.59;4998635;28;20033;-80
2021/07/09 06:36:23;;;;;;;9.45;3.92;;;;;;;14.01;86.83;101399.25;4972263;28;20042;-79
2021/07/09 06:38:49;;;;;;;10.45;4.40;;;;;;;14.00;86.65;101397.59;5003365;28;20033;-79
2021/07/09 06:41:15;;;;;;;8.25;4.50;;;;;;;14.01;86.34;101404.66;4988897;28;20082;-79
2021/07/09 06:43:40;;;;;;;6.25;3.75;;;;;;;14.01;86.66;101396.56;5004959;28;20068;-79
2021/07/09 06:46:05;;;;;;;6.90;3.60;;;;;;;14.06;86.65;101396.84;4991876;28;20032;-79
2021/07/09 06:48:31;;;;;;;5.25;3.30;;;;;;;14.05;86.58;101389.78;4985325;28;20029;-79
2021/07/09 06:50:56;;;;;;;6.63;3.47;;;;;;;14.03;86.38;101394.53;4989388;28;20033;-79
2021/07/09 06:53:22;;;;;;;7.90;4.20;;;;;;;14.04;86.09;101400.75;4993572;28;20100;-80
2021/07/09 06:55:47;;;;;;;8.98;5.05;;;;;;;14.03;86.50;101408.03;4986164;28;20026;-79
2021/07/09 06:58:12;;;;;;;7.40;3.63;;;;;;;14.03;86.40;101401.78;4983292;28;20045;-79
2021/07/09 07:00:38;;;;;;;5.25;3.47;;;;;;;13.99;86.14;101395.91;4983641;28;20185;-79
2021/07/09 07:03:05;;;;;;;5.75;3.35;;;;;;;14.00;86.10;101385.94;4997232;28;20035;-79
2021/07/09 07:05:31;;;;;;;7.68;4.18;;;;;;;14.04;86.37;101389.94;4992937;28;20041;-78
2021/07/09 07:07:56;;;;;;;6.95;3.38;;;;;;;14.05;86.43;101388.91;5002438;28;20486;-79
2021/07/09 07:10:22;;;;;;;6.93;3.50;;;;;;;14.07;86.40;101385.00;4987390;28;20108;-78
2021/07/09 07:12:47;;;;;;;5.38;3.47;;;;;;;14.04;85.66;101379.97;4985603;28;20068;-78
2021/07/09 07:15:13;;;;;;;7.93;3.88;;;;;;;14.11;85.90;101388.19;4975265;28;20027;-79
2021/07/09 07:17:39;;;;;;;5.50;3.38;;;;;;;14.14;85.78;101376.19;4989638;28;20088;-78
2021/07/09 07:20:05;;;;;;;6.47;3.72;;;;;;;14.21;85.92;101367.13;4984265;28;20038;-79
2021/07/09 07:22:31;;;;;;;6.50;3.83;;;;;;;14.24;85.68;101374.88;4995376;28;20088;-79
2021/07/09 07:24:56;;;;;;;7.75;3.33;;;;;;;14.21;85.49;101375.25;5015170;28;20030;-80
2021/07/09 07:27:24;;;;;;;7.40;3.42;;;;;;;14.30;85.06;101378.72;4994890;28;20530;-79
2021/07/09 07:29:50;;;;;;;6.88;3.53;;;;;;;14.30;84.99;101387.66;4993483;28;20029;-80
2021/07/09 07:32:16;;;;;;;5.47;3.33;;;;;;;14.36;84.32;101379.81;4977082;28;20026;-79
2021/07/09 07:34:42;;;;;;;5.43;3.40;;;;;;;14.46;84.22;101375.81;5007521;28;20044;-80
2021/07/09 07:37:08;;;;;;;5.40;3.55;;;;;;;14.57;84.10;101379.94;5000212;28;20078;-80
2021/07/09 07:39:34;;;;;;;8.60;3.90;;;;;;;14.62;83.66;101380.22;4981353;28;20045;-79
2021/07/09 07:41:59;;;;;;;6.82;3.60;;;;;;;14.66;83.09;101384.25;4975564;28;20046;-80
2021/07/09 07:44:26;;;;;;;5.90;3.65;;;;;;;14.68;82.92;101386.75;5009275;28;22418;-80
2021/07/09 07:46:53;;;;;;;6.93;3.25;;;;;;;14.71;82.74;101387.25;5010308;28;20030;-80
2021/07/09 07:49:20;;;;;;;5.97;3.15;;;;;;;14.71;82.51;101381.84;4996082;28;20033;-80
2021/07/09 07:51:45;;;;;;;8.73;3.05;;;;;;;14.79;82.20;101386.31;4993837;28;20023;-79
2021/07/09 07:54:11;;;;;;;6.10;3.05;;;;;;;14.76;82.22;101372.28;4995516;28;20159;-79
2021/07/09 07:56:36;;;;;;;8.20;3.40;;;;;;;14.88;81.94;101378.91;4986478;28;20025;-79
2021/07/09 07:59:01;;;;;;;5.63;3.42;;;;;;;15.00;81.96;101381.97;4993308;28;21421;-80
2021/07/09 08:01:30;;;;;;;4.70;3.03;;;;;;;15.00;81.15;101371.13;4991088;28;20040;-80
2021/07/09 08:03:55;;;;;;;7.13;3.30;;;;;;;15.08;81.17;101369.16;4987228;28;20042;-79
2021/07/09 08:06:21;;;;;;;4.57;3.10;;;;;;;15.20;80.68;101371.38;4996340;28;20030;-80
2021/07/09 08:08:46;;;;;;;7.63;2.90;;;;;;;15.24;80.18;101378.06;4991576;28;20065;-79
2021/07/09 08:11:12;;;;;;;5.35;3.80;;;;;;;15.32;79.99;101375.25;5004132;28;20097;-80
2021/07/09 08:13:39;;;;;;;6.43;3.38;;;;;;;15.36;79.88;101380.09;4994343;28;20045;-80
2021/07/09 08:16:05;;;;;;;5.90;2.95;;;;;;;15.41;79.48;101367.84;4995132;28;20075;-80
2021/07/09 08:18:31;;;;;;;5.07;2.97;;;;;;;15.45;78.46;101369.13;4980160;28;20041;-79
2021/07/09 08:20:56;;;;;;;5.88;2.72;;;;;;;15.48;78.75;101369.59;4982653;28;20417;-79
2021/07/09 08:23:21;;;;;;;4.20;3.28;;;;;;;15.57;78.83;101375.72;4980762;28;20029;-80
2021/07/09 08:25:48;;;;;;;4.35;3.03;;;;;;;15.56;78.69;101368.63;5010960;28;20018;-80
2021/07/09 08:28:14;;;;;;;5.97;3.38;;;;;;;15.67;78.62;101368.09;4988935;28;20028;-80
2021/07/09 08:30:41;;;;;;;5.40;2.90;;;;;;;15.66;77.63;101377.25;4986330;28;20034;-79
2021/07/09 08:33:07;;;;;;;6.05;3.10;;;;;;;15.59;77.76;101365.53;4983492;28;20037;-79
2021/07/09 08:35:32;;;;;;;5.28;3.00;;;;;;;15.56;78.04;101363.22;5000544;28;20098;-80
2021/07/09 08:37:58;;;;;;;6.18;3.15;;;;;;;15.59;77.89;101371.78;4978649;28;20021;-80
2021/07/09 08:40:23;;;;;;;4.85;3.20;;;;;;;15.52;77.88;101361.91;5013410;28;20038;-80
2021/07/09 08:42:49;;;;;;;4.47;3.25;;;;;;;15.50;78.09;101358.53;5001422;28;20038;-80
2021/07/09 08:45:14;;;;;;;6.20;3.20;;;;;;;15.55;77.84;101369.66;4996439;28;20109;-79
2021/07/09 08:47:40;;;;;;;5.43;2.65;;;;;;;15.58;77.94;101369.25;4996841;28;20040;-80
2021/07/09 08:50:07;;;;;;;6.22;2.97;;;;;;;15.54;77.49;101359.84;4996036;28;20030;-80
2021/07/09 08:52:36;;;;;;;11.55;3.00;;;;;;;15.51;77.33;101366.50;5008057;28;20050;-80
2021/07/09 08:55:05;;;;;;;5.43;2.90;;;;;;;15.51;77.17;101357.53;4998981;28;20026;-79
2021/07/09 08:57:31;;;;;;;4.63;2.83;;;;;;;15.56;77.43;101353.22;4994230;28;20502;-80
2021/07/09 08:59:56;;;;;;;5.63;3.20;;;;;;;15.56;77.36;101364.03;4978591;28;20030;-79
2021/07/09 09:02:26;;;;;;;6.45;3.25;;;;;;;15.48;77.54;101355.19;5008902;28;20042;-79
2021/07/09 09:04:53;;;;;;;8.00;3.22;;;;;;;15.49;77.66;101351.47;4996279;28;20034;-79
2021/07/09 09:07:18;;;;;;;6.13;3.50;;;;;;;15.55;77.44;101361.50;4979340;28;20022;-80
2021/07/09 09:09:44;;;;;;;4.30;3.15;;;;;;;15.50;77.38;101351.25;4976281;28;20026;-80
2021/07/09 09:12:13;;;;;;;4.30;3.20;;;;;;;15.53;77.46;101360.88;4990944;28;20065;-80
2021/07/09 09:14:49;;;;;;;3.63;2.88;;;;;;;15.49;77.58;101351.47;5015017;28;20053;-79
2021/07/09 09:17:35;;;;;;;5.78;3.60;;;;;;;15.53;77.65;101361.72;4978913;28;20037;-79
2021/07/09 09:20:10;;;;;;;7.22;3.50;;;;;;;15.51;77.67;101343.97;4992751;28;20037;-81
2021/07/09 09:22:56;;;;;;;5.47;3.15;;;;;;;15.57;78.07;101354.03;4991442;28;20018;-80
2021/07/09 09:25:23;;;;;;;6.07;3.22;;;;;;;15.56;77.74;101355.09;5006754;28;20037;-80
2021/07/09 09:28:13;;;;;;;8.95;3.88;;;;;;;15.61;77.80;101350.75;5012489;28;20029;-80
2021/07/09 09:30:40;;;;;;;4.82;3.70;;;;;;;15.67;77.98;101351.84;4994024;28;20025;-79
2021/07/09 09:33:09;;;;;;;7.60;3.40;;;;;;;15.70;77.79;101335.22;5010336;28;20061;-80
2021/07/09 09:35:37;;;;;;;8.10;3.55;;;;;;;15.77;77.53;101338.81;4978120;28;20155;-79
2021/07/09 09:38:06;;;;;;;4.68;3.40;;;;;;;15.78;77.50;101331.53;4994820;28;20018;-80
2021/07/09 09:40:33;;;;;;;7.80;3.25;;;;;;;15.90;77.07;101345.38;4993685;28;20025;-80
2021/07/09 09:43:05;;;;;;;7.65;4.80;;;;;;;15.97;76.68;101344.38;4978443;28;20032;-80
2021/07/09 09:45:31;;;;;;;7.30;3.78;;;;;;;15.98;75.96;101337.09;4978211;28;20545;-80
2021/07/09 09:48:07;;;;;;;8.35;4.25;;;;;;;16.13;75.74;101340.53;4977633;28;20026;-80
2021/07/09 09:50:40;;;;;;;10.30;5.65;;;;;;;16.25;74.77;101344.38;4995095;28;20026;-80
2021/07/09 09:53:06;;;;;;;5.97;3.97;;;;;;;16.35;74.63;101343.19;4995760;28;20029;-81
2021/07/09 09:55:32;;;;;;;6.32;3.83;;;;;;;16.40;74.27;101335.28;4995878;28;20382;-79
2021/07/09 09:58:21;;;;;;;7.65;5.05;;;;;;;16.46;73.50;101329.06;4994586;28;20125;-81
2021/07/09 10:00:49;;;;;;;4.15;3.58;;;;;;;16.56;73.57;101337.66;4983881;28;20045;-81
2021/07/09 10:03:14;;;;;;;7.43;3.90;;;;;;;16.57;72.83;101325.78;5009941;28;20071;-81
2021/07/09 10:05:42;;;;;;;6.13;4.00;;;;;;;16.56;73.48;101324.09;4993720;28;20544;-79
2021/07/09 10:08:15;;;;;;;5.70;3.13;;;;;;;16.60;73.83;101335.41;5011571;28;20386;-79
2021/07/09 10:10:41;;;;;;;;;;;;;;;16.63;73.89;101332.28;5006421;28;20022;-80
2021/07/09 10:13:19;;;;;;;5.38;4.15;;;;;;;16.57;73.55;101331.22;4976027;28;20004;-80
2021/07/09 10:15:45;;;;;;;4.85;3.10;;;;;;;16.60;73.00;101336.22;4974933;28;20046;-79
2021/07/09 10:18:12;;;;;;;5.03;3.03;;;;;;;16.51;73.26;101337.41;4990888;28;20368;-80
2021/07/09 10:20:40;;;;;;;10.57;4.53;;;;;;;16.49;73.29;101329.50;4989688;28;20084;-79
2021/07/09 10:23:06;;;;;;;6.88;3.97;;;;;;;16.58;73.45;101324.72;5011225;28;20475;-81
2021/07/09 10:25:31;;;;;;;4.18;3.30;;;;;;;16.79;73.74;101320.25;4974365;28;20376;-78
2021/07/09 10:27:57;;;;;;;5.25;3.25;;;;;;;17.03;72.65;101327.03;4977844;28;20026;-79
2021/07/09 10:30:22;;;;;;;5.90;2.83;;;;;;;17.27;71.87;101321.00;5008323;28;20451;-79
2021/07/09 10:32:49;;;;;;;3.90;2.80;;;;;;;17.46;71.33;101316.63;4981801;28;20079;-82
2021/07/09 10:35:41;;;;;;;4.50;3.00;;;;;;;17.77;70.70;101332.34;4993403;28;20068;-81
2021/07/09 10:38:07;;;;;;;6.05;3.08;;;;;;;18.09;70.02;101323.56;4991680;28;20032;-83
2021/07/09 10:40:33;;;;;;;8.63;5.55;;;;;;;18.12;69.32;101313.09;4993165;28;20042;-80
2021/07/09 10:43:00;;;;;;;5.43;3.63;;;;;;;18.10;69.02;101323.38;4979172;28;20035;-82
2021/07/09 10:45:26;;;;;;;3.50;2.42;;;;;;;17.89;68.93;101320.84;4996205;28;20044;-81
2021/07/09 10:48:16;;;;;;;4.15;2.67;;;;;;;17.56;69.13;101303.47;4993025;28;20466;-82
2021/07/09 10:50:51;;;;;;;4.07;2.33;;;;;;;17.59;69.39;101324.81;4975956;28;20367;-82
2021/07/09 10:53:25;;;;;;;5.78;2.65;;;;;;;17.64;69.93;101320.63;4991607;28;20030;-82
2021/07/09 10:55:57;;;;;;;7.72;2.88;;;;;;;17.58;69.51;101317.72;5009490;28;20036;-81
2021/07/09 10:58:40;;;;;;;4.68;3.00;;;;;;;17.52;70.00;101310.38;4991824;28;20022;-81
2021/07/09 11:01:06;;;;;;;5.18;2.50;;;;;;;17.38;69.90;101314.13;4979824;28;20030;-81
2021/07/09 11:03:39;;;;;;;4.13;2.35;;;;;;;17.19;70.08;101315.78;4983516;28;20026;-82
2021/07/09 11:06:33;;;;;;;6.63;2.88;;;;;;;17.12;71.16;101313.06;4974261;28;20378;-81
2021/07/09 11:09:10;;;;;;;3.88;2.80;;;;;;;17.03;71.75;101313.44;5009380;28;20025;-82
2021/07/09 11:11:39;;;;;;;5.07;3.75;;;;;;;16.99;71.82;101323.88;5002633;28;20485;-81
2021/07/09 11:14:08;;;;;;;4.10;2.17;;;;;;;16.89;72.33;101315.28;5002366;28;20030;-82
2021/07/09 11:16:36;;;;;;;5.53;2.92;;;;;;;16.70;72.28;101309.53;4982310;28;20068;-81
2021/07/09 11:19:04;;;;;;;5.90;2.90;;;;;;;16.73;72.68;101312.91;4979260;28;20038;-83
2021/07/09 11:21:33;;;;;;;7.00;3.42;;;;;;;16.74;73.38;101315.41;4988243;28;20042;-81
2021/07/09 11:24:09;;;;;;;7.53;3.28;;;;;;;16.78;73.00;101318.59;4998662;28;20076;-80